Quixabeira, Brazil
Current Conditions -  °F | °C
As of 2:00 AM on Tuesday 21 Oct 2014 (Local Time) from SBPL Reporting Station
Clear Clear  
Wind Chill: 28°   Ceiling: Unl
Heat Index: 29°   Visibility: 6mi
Dew Point: 17°   Wind: 6mph
Humidity: 51%   Direction: 130°SE
Pressure: 29.85"   Gusts: NA
Location:  11.41°S, 40.13°W
Report Text: SBPL 210500Z 13005KT CAVOK 28/17 Q1011
Loading
Personal Weather Stations






























Interactive Weather Map
Tropical Storm Tracking
New forecast layout! Learn more

10-Day Weather Forecast

Advertisements
Track Severe Weather on mobile